Time;durP1;ratioP1;P1;durP2;ratioP2;P2;SDS_P1;SDS_P2;PMS_P1;PMS_P2;Temp;Humidity;BMP_temperature;BMP_pressure;BME280_temperature;BME280_humidity;BME280_pressure;Samples;Min_cycle;Max_cycle;Signal;HPM_P1;HPM_P2
2022/09/28 00:00:33;;;;;;;1.8;1.3;;;;;;;8.6;92.6377;924.4272;;;;
2022/09/28 00:02:58;;;;;;;2.4;1;;;;;;;8.52;92.33594;924.2967;;;;
2022/09/28 00:05:28;;;;;;;2.3;1.3;;;;;;;8.45;92.68359;924.2734;;;;
2022/09/28 00:07:53;;;;;;;4.1;1.2;;;;;;;8.59;92.81543;924.2036;;;;
2022/09/28 00:10:26;;;;;;;3;1.4;;;;;;;8.57;92.51758;924.0569;;;;
2022/09/28 00:12:55;;;;;;;2.3;1.2;;;;;;;8.5;92.99121;924.0811;;;;
2022/09/28 00:15:19;;;;;;;2.6;1.3;;;;;;;8.48;92.48535;923.921;;;;
2022/09/28 00:17:45;;;;;;;2;0.9;;;;;;;8.35;92.84375;923.8081;;;;
2022/09/28 00:20:10;;;;;;;0.7;0.7;;;;;;;8.27;92.61133;923.9089;;;;
2022/09/28 00:22:39;;;;;;;1.2;0.8;;;;;;;8.2;92.65234;923.9146;;;;
2022/09/28 00:25:04;;;;;;;1.2;0.6;;;;;;;8.23;93.22754;923.8124;;;;
2022/09/28 00:27:33;;;;;;;1.1;0.7;;;;;;;8.15;93.16504;923.7047;;;;
2022/09/28 00:29:58;;;;;;;0.5;0.5;;;;;;;8.24;92.63867;923.6475;;;;
2022/09/28 00:32:24;;;;;;;0.7;0.6;;;;;;;8.27;92.09961;923.6972;;;;
2022/09/28 00:34:49;;;;;;;1;0.5;;;;;;;8.3;91.8125;923.6661;;;;
2022/09/28 00:37:17;;;;;;;1.2;0.6;;;;;;;8.31;91.41699;923.6201;;;;
2022/09/28 00:39:42;;;;;;;1.6;0.6;;;;;;;8.4;91.43555;923.669;;;;
2022/09/28 00:42:09;;;;;;;0.9;0.6;;;;;;;8.33;91.1709;923.7;;;;
2022/09/28 00:44:33;;;;;;;0.4;0.4;;;;;;;8.33;91.36133;923.6889;;;;
2022/09/28 00:46:58;;;;;;;0.4;0.4;;;;;;;8.29;91.52637;923.606;;;;
2022/09/28 00:49:24;;;;;;;0.6;0.6;;;;;;;8.37;91.58691;923.5224;;;;
2022/09/28 00:51:49;;;;;;;0.5;0.5;;;;;;;8.45;91.69727;923.6222;;;;
2022/09/28 00:54:14;;;;;;;0.5;0.4;;;;;;;8.44;92.33008;923.581;;;;
2022/09/28 00:56:41;;;;;;;0.4;0.4;;;;;;;8.43;92.62305;923.6001;;;;
2022/09/28 00:59:06;;;;;;;0.4;0.4;;;;;;;8.19;93.02539;923.435;;;;
2022/09/28 01:03:56;;;;;;;0.8;0.7;;;;;;;8.13;93.58105;923.459;;;;
2022/09/28 01:06:22;;;;;;;0.9;0.4;;;;;;;7.94;94.16406;923.3655;;;;
2022/09/28 01:08:49;;;;;;;0.4;0.4;;;;;;;7.99;94.66211;923.4025;;;;
2022/09/28 01:11:14;;;;;;;0.8;0.6;;;;;;;8.05;94.6875;923.3422;;;;
2022/09/28 01:13:39;;;;;;;1.4;1;;;;;;;8.11;95.09668;923.2626;;;;
2022/09/28 01:16:10;;;;;;;1.4;0.7;;;;;;;8.18;94.77148;923.2472;;;;
2022/09/28 01:18:35;;;;;;;1.7;0.7;;;;;;;8.12;94.2373;923.1951;;;;
2022/09/28 01:21:01;;;;;;;0.9;0.5;;;;;;;8.15;94.16406;923.2497;;;;
2022/09/28 01:23:25;;;;;;;0.3;0.3;;;;;;;8.29;93.55957;923.3362;;;;
2022/09/28 01:25:59;;;;;;;0.7;0.6;;;;;;;8.24;93.92285;923.2455;;;;
2022/09/28 01:28:25;;;;;;;1.2;0.8;;;;;;;8.26;94.03027;923.1731;;;;
2022/09/28 01:30:51;;;;;;;1.1;0.5;;;;;;;8.31;93.9043;923.1682;;;;
2022/09/28 01:33:55;;;;;;;0.8;0.7;;;;;;;8.31;93.46289;923.0936;;;;
2022/09/28 01:36:23;;;;;;;1.2;0.6;;;;;;;8.17;93.87305;923.0355;;;;
2022/09/28 01:38:50;;;;;;;1.1;0.7;;;;;;;8.27;93.90527;922.9123;;;;
2022/09/28 01:44:38;;;;;;;1;0.6;;;;;;;8.18;95.06738;922.7064;;;;
2022/09/28 01:47:04;;;;;;;0.5;0.4;;;;;;;8.08;94.62695;922.6492;;;;
2022/09/28 01:49:29;;;;;;;0.6;0.4;;;;;;;7.89;95.10547;922.5353;;;;
2022/09/28 01:51:57;;;;;;;0.6;0.6;;;;;;;7.89;95.11816;922.3895;;;;
2022/09/28 01:54:23;;;;;;;0.6;0.4;;;;;;;7.59;96.5498;922.4398;;;;
2022/09/28 01:56:48;;;;;;;0.4;0.4;;;;;;;7.73;96.04492;922.395;;;;
2022/09/28 01:59:14;;;;;;;0.4;0.4;;;;;;;7.65;95.68848;922.2346;;;;
2022/09/28 02:01:39;;;;;;;0.3;0.3;;;;;;;7.51;96.43652;922.1892;;;;
2022/09/28 02:04:04;;;;;;;0.3;0.3;;;;;;;7.5;96.70898;922.1559;;;;
2022/09/28 02:06:30;;;;;;;0.3;0.3;;;;;;;7.48;96.26074;922.0634;;;;
2022/09/28 02:08:54;;;;;;;0.3;0.3;;;;;;;7.25;96.51758;921.955;;;;
2022/09/28 02:11:19;;;;;;;0.3;0.3;;;;;;;7.37;95.93164;921.8958;;;;
2022/09/28 02:13:48;;;;;;;0.9;0.2;;;;;;;7.54;94.87012;921.8753;;;;
2022/09/28 02:16:15;;;;;;;0.9;0.5;;;;;;;7.47;95.53516;921.8687;;;;
2022/09/28 02:18:44;;;;;;;0.3;0.3;;;;;;;7.5;95.28027;921.7806;;;;
2022/09/28 02:21:09;;;;;;;0.5;0.5;;;;;;;7.56;95.45117;921.7913;;;;
2022/09/28 02:23:35;;;;;;;1.1;0.7;;;;;;;7.28;97.26074;921.6453;;;;
2022/09/28 02:26:00;;;;;;;0.6;0.6;;;;;;;7.31;97.95801;921.6238;;;;
2022/09/28 02:28:25;;;;;;;1.2;0.5;;;;;;;7.37;97.66602;921.6164;;;;
2022/09/28 02:30:50;;;;;;;1.1;0.5;;;;;;;7.15;98.2832;921.5278;;;;
2022/09/28 02:33:16;;;;;;;0.7;0.6;;;;;;;7.01;99.61133;921.4739;;;;
2022/09/28 02:35:41;;;;;;;1;0.6;;;;;;;6.97;100;921.4595;;;;
2022/09/28 02:38:06;;;;;;;0.4;0.4;;;;;;;7.04;99.82129;921.3092;;;;
2022/09/28 02:40:32;;;;;;;0.4;0.4;;;;;;;7.09;99.68652;921.3658;;;;
2022/09/28 02:43:00;;;;;;;0.5;0.5;;;;;;;7.21;98.8623;921.1595;;;;
2022/09/28 02:45:56;;;;;;;0.4;0.4;;;;;;;7.14;98.49609;921.0839;;;;
2022/09/28 02:48:23;;;;;;;0.5;0.5;;;;;;;7.08;99.15234;921.1666;;;;
2022/09/28 02:50:53;;;;;;;1.7;1;;;;;;;7.15;99.08789;921.1091;;;;
2022/09/28 02:53:18;;;;;;;0.8;0.8;;;;;;;7.08;99.12695;921.0193;;;;
2022/09/28 02:55:44;;;;;;;1.4;0.7;;;;;;;7.3;98.56738;920.9858;;;;
2022/09/28 02:58:09;;;;;;;1.5;0.7;;;;;;;7.4;98.22754;921.0097;;;;
2022/09/28 03:01:05;;;;;;;0.5;0.5;;;;;;;7.41;97.97852;921.0469;;;;
2022/09/28 03:03:13;;;;;;;2.3;1;;;;;;;7.33;97.47461;921.0308;;;;
2022/09/28 03:05:39;;;;;;;2.5;1;;;;;;;7.2;98.49707;921.0266;;;;
2022/09/28 03:08:04;;;;;;;1.4;0.7;;;;;;;7.21;98.94336;920.9595;;;;
2022/09/28 03:10:31;;;;;;;1.2;0.9;;;;;;;7.24;98.44141;920.8896;;;;
2022/09/28 03:12:56;;;;;;;2.5;0.8;;;;;;;7.37;97.81348;920.8705;;;;
2022/09/28 03:15:30;;;;;;;0.5;0.4;;;;;;;7.48;97.19238;920.7664;;;;
2022/09/28 03:17:55;;;;;;;0.6;0.4;;;;;;;7.44;97.3877;920.6479;;;;
2022/09/28 03:20:26;;;;;;;0.4;0.4;;;;;;;7.61;96.67578;920.5143;;;;
2022/09/28 03:22:52;;;;;;;0.6;0.4;;;;;;;7.65;95.87012;920.4177;;;;
2022/09/28 03:25:18;;;;;;;0.6;0.3;;;;;;;7.76;95.62207;920.3611;;;;
2022/09/28 03:27:45;;;;;;;0.4;0.4;;;;;;;7.72;95.2832;920.272;;;;
2022/09/28 03:30:10;;;;;;;0.4;0.4;;;;;;;7.46;96.30176;920.3983;;;;
2022/09/28 03:32:37;;;;;;;0.5;0.4;;;;;;;7.51;96.86914;920.3892;;;;
2022/09/28 03:35:02;;;;;;;0.3;0.3;;;;;;;7.59;96.44531;920.3006;;;;
2022/09/28 03:37:30;;;;;;;0.3;0.3;;;;;;;7.6;96.58301;920.3116;;;;
2022/09/28 03:39:59;;;;;;;0.4;0.4;;;;;;;7.47;96.49805;920.3095;;;;
2022/09/28 03:42:24;;;;;;;0.4;0.4;;;;;;;7.57;96.97266;920.2216;;;;
2022/09/28 03:44:52;;;;;;;0.3;0.3;;;;;;;7.63;96.70313;920.3187;;;;
2022/09/28 03:47:18;;;;;;;0.7;0.7;;;;;;;7.74;96.51367;920.2957;;;;
2022/09/28 03:49:46;;;;;;;0.8;0.8;;;;;;;7.88;95.88574;920.3065;;;;
2022/09/28 03:52:11;;;;;;;1.6;1.5;;;;;;;8;95.5166;920.348;;;;
2022/09/28 03:54:38;;;;;;;3.4;1.3;;;;;;;8.05;95.2998;920.2606;;;;
2022/09/28 03:57:03;;;;;;;1.2;1.1;;;;;;;8.2;94.18555;920.3272;;;;
2022/09/28 04:00:03;;;;;;;2;1.2;;;;;;;8.15;94.41406;920.3476;;;;
2022/09/28 04:02:38;;;;;;;15.9;8.6;;;;;;;8.27;93.93945;920.1928;;;;
2022/09/28 04:05:08;;;;;;;9.9;5;;;;;;;8.34;93.95508;920.2866;;;;
2022/09/28 04:09:58;;;;;;;1.6;1.3;;;;;;;8.36;94.12012;920.2228;;;;
2022/09/28 04:12:23;;;;;;;8.6;5.2;;;;;;;8.29;94.72949;920.1965;;;;
2022/09/28 04:14:51;;;;;;;14;8.1;;;;;;;8.39;94.49023;920.2955;;;;
2022/09/28 04:17:16;;;;;;;3.2;2.2;;;;;;;8.4;94.44629;920.2549;;;;
2022/09/28 04:19:41;;;;;;;2.5;1.8;;;;;;;8.31;94.74707;920.1058;;;;
2022/09/28 04:22:06;;;;;;;1.6;1.4;;;;;;;8.39;94.29688;920.1671;;;;
2022/09/28 04:24:32;;;;;;;3.4;1.8;;;;;;;8.5;93.57031;920.2112;;;;
2022/09/28 04:29:30;;;;;;;4.8;2.1;;;;;;;8.5;93.72949;920.1375;;;;
2022/09/28 04:31:56;;;;;;;1.9;1.4;;;;;;;8.36;94.44824;920.223;;;;
2022/09/28 04:34:21;;;;;;;1.8;1.3;;;;;;;8.33;94.7373;920.196;;;;
2022/09/28 04:36:53;;;;;;;2.6;2;;;;;;;8.41;94.15332;920.1727;;;;
2022/09/28 04:39:24;;;;;;;3.5;1.9;;;;;;;8.45;94.42188;920.1928;;;;
2022/09/28 04:47:55;;;;;;;2.4;1.5;;;;;;;8.39;95.06934;920.3756;;;;
2022/09/28 04:50:25;;;;;;;1.5;1.1;;;;;;;8.28;95.61133;920.3853;;;;
2022/09/28 04:52:54;;;;;;;1.3;1.2;;;;;;;8.36;95.64258;920.3228;;;;
2022/09/28 04:55:19;;;;;;;1.3;1.2;;;;;;;8.48;95.28027;920.4185;;;;
2022/09/28 04:58:17;;;;;;;1.4;1.1;;;;;;;8.37;94.67676;920.4052;;;;
2022/09/28 05:00:53;;;;;;;1.4;1;;;;;;;8.49;94.10254;920.4691;;;;
2022/09/28 05:03:18;;;;;;;1.4;1;;;;;;;8.63;94.2666;920.4955;;;;
2022/09/28 05:05:49;;;;;;;2.2;1.1;;;;;;;8.71;94.01367;920.4826;;;;
2022/09/28 05:08:14;;;;;;;1.3;1.2;;;;;;;8.77;93.61816;920.3937;;;;
2022/09/28 05:10:41;;;;;;;2.7;2.5;;;;;;;8.65;93.625;920.3223;;;;
2022/09/28 05:13:05;;;;;;;2.9;1.7;;;;;;;8.62;93.5957;920.3965;;;;
2022/09/28 05:15:37;;;;;;;5.8;3.5;;;;;;;8.52;94.83594;920.4116;;;;
2022/09/28 05:18:02;;;;;;;2.1;1.6;;;;;;;8.42;95.47266;920.4073;;;;
2022/09/28 05:20:31;;;;;;;1.7;1.6;;;;;;;8.33;95.39844;920.3672;;;;
2022/09/28 05:22:56;;;;;;;1.4;1.2;;;;;;;8.42;94.58691;920.3367;;;;
2022/09/28 05:25:21;;;;;;;0.8;0.8;;;;;;;8.55;93.97852;920.3717;;;;
2022/09/28 05:27:46;;;;;;;2;1;;;;;;;8.52;94.12012;920.3451;;;;
2022/09/28 05:30:14;;;;;;;2.1;1.1;;;;;;;8.58;92.42676;920.2864;;;;
2022/09/28 05:32:40;;;;;;;2.9;1.8;;;;;;;8.64;91.88574;920.2566;;;;
2022/09/28 05:35:11;;;;;;;1.7;1.2;;;;;;;8.58;91.39258;920.2856;;;;
2022/09/28 05:37:36;;;;;;;1.3;1;;;;;;;8.64;90.80566;920.113;;;;
2022/09/28 05:40:05;;;;;;;1.6;1.3;;;;;;;8.72;92.21875;920.2198;;;;
2022/09/28 05:42:30;;;;;;;1.8;1.3;;;;;;;8.81;92.02246;920.1475;;;;
2022/09/28 05:44:57;;;;;;;2.3;1.6;;;;;;;8.86;92.33008;920.1889;;;;
2022/09/28 05:47:21;;;;;;;2.2;1.2;;;;;;;8.97;92.1709;920.1763;;;;
2022/09/28 05:55:10;;;;;;;1.4;1.3;;;;;;;8.82;94.08301;919.9617;;;;
2022/09/28 05:57:39;;;;;;;2.6;1.4;;;;;;;8.95;93.41602;919.9235;;;;
2022/09/28 06:00:12;;;;;;;1.2;1.1;;;;;;;8.87;92.72949;919.8998;;;;
2022/09/28 06:06:02;;;;;;;2.7;1.4;;;;;;;8.66;93.99023;919.8708;;;;
2022/09/28 06:09:09;;;;;;;1.1;1;;;;;;;8.76;94.2168;919.9464;;;;
2022/09/28 06:11:34;;;;;;;1.2;1.1;;;;;;;8.77;92.78809;919.9225;;;;
2022/09/28 06:14:03;;;;;;;2;1;;;;;;;8.85;92.99902;919.9351;;;;
2022/09/28 06:16:29;;;;;;;1.6;0.9;;;;;;;8.87;93.98047;919.9753;;;;
2022/09/28 06:18:54;;;;;;;0.7;0.7;;;;;;;8.97;93.66113;919.9858;;;;
2022/09/28 06:21:20;;;;;;;0.8;0.8;;;;;;;9.11;92.95117;920.0341;;;;
2022/09/28 06:23:45;;;;;;;1.2;0.8;;;;;;;9.25;92.45703;920.0751;;;;
2022/09/28 06:27:29;;;;;;;1.5;1;;;;;;;9.23;93.30859;920.0667;;;;
2022/09/28 06:29:39;;;;;;;1.8;0.7;;;;;;;9.42;92.07227;920.0959;;;;
2022/09/28 06:32:06;;;;;;;1.9;0.7;;;;;;;9.42;92.11914;920.1236;;;;
2022/09/28 06:34:34;;;;;;;1.4;1.3;;;;;;;9.48;92.67773;920.0981;;;;
2022/09/28 06:38:17;;;;;;;3.3;1.8;;;;;;;9.56;92.19629;920.0848;;;;
2022/09/28 06:40:45;;;;;;;1.5;1.1;;;;;;;9.51;93.12988;920.0801;;;;
2022/09/28 06:43:13;;;;;;;1.5;1.1;;;;;;;9.58;93.09961;920.0701;;;;
2022/09/28 06:45:37;;;;;;;1.4;1.2;;;;;;;9.53;92.83594;920.1092;;;;
2022/09/28 06:48:02;;;;;;;1.9;1.7;;;;;;;9.5;93.19434;920.0795;;;;
2022/09/28 06:53:22;;;;;;;5.2;2.2;;;;;;;9.43;93.41992;920.0305;;;;
2022/09/28 06:55:55;;;;;;;2.6;1.9;;;;;;;9.33;93.87598;920.0675;;;;
2022/09/28 06:58:25;;;;;;;2.8;1.7;;;;;;;9.49;93.2041;920.0438;;;;
2022/09/28 07:00:48;;;;;;;1.8;1.5;;;;;;;9.53;93.57813;920.0647;;;;
2022/09/28 07:03:14;;;;;;;2;1.5;;;;;;;9.42;93.72559;920.1006;;;;
2022/09/28 07:05:40;;;;;;;1.9;1.7;;;;;;;9.37;93.87305;920.1051;;;;
2022/09/28 07:08:10;;;;;;;2.9;2;;;;;;;9.45;93.74219;920.1191;;;;
2022/09/28 07:10:40;;;;;;;1.7;1.6;;;;;;;9.43;93.5332;920.0671;;;;
2022/09/28 07:13:06;;;;;;;2.2;1.6;;;;;;;9.52;93.0498;920.1181;;;;
2022/09/28 07:15:42;;;;;;;2.9;1.9;;;;;;;9.52;93.79004;920.1594;;;;
2022/09/28 07:18:10;;;;;;;2.4;1.8;;;;;;;9.67;93.24219;920.1492;;;;
2022/09/28 07:20:39;;;;;;;4;2.1;;;;;;;9.58;93.18945;920.1854;;;;
2022/09/28 07:23:09;;;;;;;2.7;1.5;;;;;;;9.74;92.67676;920.1886;;;;
2022/09/28 07:25:36;;;;;;;4;1.8;;;;;;;9.84;92.98535;920.2094;;;;
2022/09/28 07:28:03;;;;;;;2.1;1.6;;;;;;;9.86;92.77246;920.2941;;;;
2022/09/28 07:30:28;;;;;;;2.2;1.4;;;;;;;10;91.70703;920.2274;;;;
2022/09/28 07:32:54;;;;;;;2;1.2;;;;;;;10.16;92.19824;920.3368;;;;
2022/09/28 07:35:21;;;;;;;2;1.1;;;;;;;10.34;92.31641;920.3984;;;;
2022/09/28 07:37:49;;;;;;;1.3;1.2;;;;;;;10.48;92.11719;920.385;;;;
2022/09/28 07:42:46;;;;;;;2.1;1.5;;;;;;;10.71;90.93359;920.4659;;;;
2022/09/28 07:45:10;;;;;;;1.6;1.3;;;;;;;10.86;90.85156;920.5173;;;;
2022/09/28 07:47:41;;;;;;;1.2;1.1;;;;;;;11.04;90.71582;920.5098;;;;
2022/09/28 07:50:15;;;;;;;2;1.4;;;;;;;10.96;89.80957;920.6625;;;;
2022/09/28 07:52:44;;;;;;;5.2;3.2;;;;;;;10.88;90.07813;920.6085;;;;
2022/09/28 07:55:09;;;;;;;3.2;2.1;;;;;;;10.92;89.57129;920.735;;;;
2022/09/28 07:57:40;;;;;;;2.7;1.9;;;;;;;11.05;89.26758;920.6537;;;;
2022/09/28 08:00:06;;;;;;;3;1.6;;;;;;;11.11;88.95898;920.6207;;;;
2022/09/28 08:02:32;;;;;;;1.9;1.5;;;;;;;11.15;87.94824;920.678;;;;
2022/09/28 08:04:57;;;;;;;1.7;1.1;;;;;;;11.25;88.09473;920.6707;;;;
2022/09/28 08:07:31;;;;;;;1.2;0.9;;;;;;;11.3;87.43066;920.7006;;;;
2022/09/28 08:09:55;;;;;;;1.1;1;;;;;;;11.34;88.47852;920.6679;;;;
2022/09/28 08:12:20;;;;;;;1.8;1.1;;;;;;;11.43;86.38086;920.7004;;;;
2022/09/28 08:14:45;;;;;;;1.9;1.1;;;;;;;11.5;87.15039;920.7658;;;;
2022/09/28 08:17:11;;;;;;;1.3;0.9;;;;;;;11.47;87.97852;920.7299;;;;
2022/09/28 08:22:01;;;;;;;0.9;0.9;;;;;;;11.21;89.52832;920.7827;;;;
2022/09/28 08:24:29;;;;;;;1.4;1.3;;;;;;;11.16;90.52539;920.7662;;;;
2022/09/28 08:26:52;;;;;;;1.7;1.3;;;;;;;11.23;91.15527;920.9267;;;;
2022/09/28 08:29:19;;;;;;;1.4;1.3;;;;;;;11.34;90.60645;920.981;;;;
2022/09/28 08:31:44;;;;;;;2.1;1.7;;;;;;;11.5;89.11914;920.9842;;;;
2022/09/28 08:34:10;;;;;;;1.7;1.2;;;;;;;11.58;89.33008;921.0781;;;;
2022/09/28 08:36:35;;;;;;;1;0.7;;;;;;;11.46;88.70898;921.1197;;;;
2022/09/28 08:39:02;;;;;;;1.8;1;;;;;;;11.5;89.06152;921.1006;;;;
2022/09/28 08:41:31;;;;;;;2.7;1;;;;;;;11.66;89.20703;921.087;;;;
2022/09/28 08:43:55;;;;;;;4.4;1.9;;;;;;;11.7;89.66504;921.1305;;;;
2022/09/28 08:46:24;;;;;;;0.9;0.9;;;;;;;11.77;89.10547;921.2023;;;;
2022/09/28 08:48:52;;;;;;;1;0.9;;;;;;;11.87;88.43848;921.2469;;;;
2022/09/28 08:51:15;;;;;;;2.2;1.4;;;;;;;12.06;87.6416;921.1931;;;;
2022/09/28 08:53:39;;;;;;;0.6;0.5;;;;;;;12.15;84.1084;921.274;;;;
2022/09/28 08:56:04;;;;;;;0.8;0.5;;;;;;;12.12;83.57422;921.2476;;;;
2022/09/28 08:58:29;;;;;;;1;0.9;;;;;;;12.19;83.81543;921.2676;;;;
2022/09/28 09:00:55;;;;;;;0.7;0.7;;;;;;;12.29;84.3291;921.2366;;;;
2022/09/28 09:03:24;;;;;;;1;0.6;;;;;;;12.23;83.79004;921.2596;;;;
2022/09/28 09:05:49;;;;;;;0.7;0.6;;;;;;;12.42;83.75781;921.3094;;;;
2022/09/28 09:08:18;;;;;;;3;2.4;;;;;;;12.48;83.76855;921.308;;;;
2022/09/28 09:10:43;;;;;;;3;0.8;;;;;;;12.42;81.21191;921.197;;;;
2022/09/28 09:13:11;;;;;;;1;0.5;;;;;;;12.29;81.13086;921.2142;;;;
2022/09/28 09:15:34;;;;;;;0.6;0.6;;;;;;;12.34;80.62402;921.2648;;;;
2022/09/28 09:17:58;;;;;;;1.8;0.7;;;;;;;12.39;83.23633;921.2006;;;;
2022/09/28 09:20:24;;;;;;;0.6;0.6;;;;;;;12.45;80.86133;921.2299;;;;
2022/09/28 09:22:51;;;;;;;1.1;0.8;;;;;;;12.43;81.76465;921.1561;;;;
2022/09/28 09:25:25;;;;;;;0.8;0.8;;;;;;;12.76;81.58398;921.1183;;;;
2022/09/28 09:27:52;;;;;;;1.6;1.1;;;;;;;13.16;81.68164;921.1127;;;;
2022/09/28 09:30:18;;;;;;;2.5;1.3;;;;;;;13.28;82.4541;921.0809;;;;
2022/09/28 09:32:48;;;;;;;1.6;1.2;;;;;;;13.21;80.80762;921.022;;;;
2022/09/28 09:35:19;;;;;;;1.6;1.1;;;;;;;13.63;83.54395;921.0336;;;;
2022/09/28 09:37:52;;;;;;;1.3;1.2;;;;;;;13.94;77.75781;920.9997;;;;
2022/09/28 09:40:25;;;;;;;0.5;0.4;;;;;;;13.88;73.54492;920.9249;;;;
2022/09/28 09:42:48;;;;;;;0.6;0.4;;;;;;;14.05;75.12793;920.9694;;;;
2022/09/28 09:45:19;;;;;;;0.3;0.3;;;;;;;13.6;75.64941;921.0103;;;;
2022/09/28 09:47:48;;;;;;;0.4;0.4;;;;;;;13.15;73.07813;921.0402;;;;
2022/09/28 09:50:14;;;;;;;0.6;0.5;;;;;;;13.08;75.60449;921.0444;;;;
2022/09/28 09:52:43;;;;;;;1.1;1;;;;;;;12.98;74.34668;921.0454;;;;
2022/09/28 09:55:04;;;;;;;2.7;1;;;;;;;13.19;76.21094;921.0767;;;;
2022/09/28 09:57:30;;;;;;;1.4;0.9;;;;;;;13.07;77.58984;921.0703;;;;
2022/09/28 09:59:55;;;;;;;0.5;0.5;;;;;;;12.91;78.19238;921.0905;;;;
2022/09/28 10:02:23;;;;;;;1.3;0.7;;;;;;;12.86;78.6875;921.0847;;;;
2022/09/28 10:04:48;;;;;;;1.6;0.7;;;;;;;12.6;79.35254;921.0206;;;;
2022/09/28 10:07:13;;;;;;;0.8;0.6;;;;;;;12.58;80.06055;921.0563;;;;
2022/09/28 10:09:38;;;;;;;0.7;0.7;;;;;;;12.79;79.93848;921.0831;;;;
2022/09/28 10:12:03;;;;;;;1.3;0.6;;;;;;;12.89;81.0459;921.0376;;;;
2022/09/28 10:14:32;;;;;;;1.1;1;;;;;;;13.1;79.1582;921.1884;;;;
2022/09/28 10:16:57;;;;;;;1.6;1.1;;;;;;;13.14;79.7041;921.1753;;;;
2022/09/28 10:19:22;;;;;;;2.1;1.5;;;;;;;13.35;80.25781;921.1878;;;;
2022/09/28 10:21:47;;;;;;;0.6;0.6;;;;;;;13.3;78.21777;921.1802;;;;
2022/09/28 10:24:14;;;;;;;1.3;0.8;;;;;;;13.27;79.24316;921.1166;;;;
2022/09/28 10:26:39;;;;;;;1.2;1;;;;;;;13.37;79.96582;921.0695;;;;
2022/09/28 10:29:05;;;;;;;0.8;0.7;;;;;;;13.36;78.60645;921.1217;;;;
2022/09/28 10:31:33;;;;;;;1.1;0.7;;;;;;;13.54;79.20215;921.1905;;;;
2022/09/28 10:33:56;;;;;;;0.7;0.6;;;;;;;13.58;77.80664;921.1661;;;;
2022/09/28 10:36:25;;;;;;;0.8;0.5;;;;;;;13.48;80.87109;921.2081;;;;
2022/09/28 10:38:47;;;;;;;0.5;0.5;;;;;;;13.01;75.89063;921.2173;;;;
2022/09/28 10:41:12;;;;;;;0.6;0.6;;;;;;;13.17;80.0293;921.2667;;;;
2022/09/28 10:43:37;;;;;;;0.8;0.8;;;;;;;13.38;80.66895;921.2162;;;;
2022/09/28 10:46:02;;;;;;;0.6;0.6;;;;;;;13.04;79.46777;921.1398;;;;
2022/09/28 10:48:32;;;;;;;1.4;0.6;;;;;;;13.06;79.95215;921.1234;;;;
2022/09/28 10:51:00;;;;;;;0.9;0.6;;;;;;;13.28;82.04102;921.1865;;;;
2022/09/28 10:53:24;;;;;;;1.7;1.5;;;;;;;13.53;81.24707;921.0596;;;;
2022/09/28 10:55:49;;;;;;;1.5;1.2;;;;;;;13.47;76.76563;921.0245;;;;
2022/09/28 10:58:15;;;;;;;1.5;1.4;;;;;;;13.73;80.62891;920.9811;;;;
2022/09/28 11:00:41;;;;;;;2.7;2.1;;;;;;;14.14;78.88672;921.0815;;;;
2022/09/28 11:03:06;;;;;;;5.4;3.2;;;;;;;14.21;75.17676;921.0347;;;;
2022/09/28 11:05:31;;;;;;;6.5;3.7;;;;;;;14.33;78.57324;920.9589;;;;
2022/09/28 11:07:56;;;;;;;4;2.6;;;;;;;14.34;78.16113;920.9347;;;;
2022/09/28 11:10:25;;;;;;;0.4;0.4;;;;;;;13.96;72.88086;920.8876;;;;
2022/09/28 11:12:49;;;;;;;0.5;0.5;;;;;;;13.89;77.19531;920.8917;;;;
2022/09/28 11:15:14;;;;;;;0.9;0.7;;;;;;;14.12;76.52344;920.8965;;;;
2022/09/28 11:17:52;;;;;;;0.7;0.7;;;;;;;14.21;74.2002;920.8592;;;;
2022/09/28 11:20:21;;;;;;;1.4;0.7;;;;;;;14.42;76.34473;920.808;;;;
2022/09/28 11:22:49;;;;;;;1.6;1;;;;;;;14.47;77.5625;920.7899;;;;
2022/09/28 11:25:16;;;;;;;0.8;0.8;;;;;;;14.42;78.09473;920.8201;;;;
2022/09/28 11:27:42;;;;;;;1;0.8;;;;;;;14.51;77.41895;920.8047;;;;
2022/09/28 11:30:07;;;;;;;0.6;0.6;;;;;;;14.63;72.99121;920.8098;;;;
2022/09/28 11:32:32;;;;;;;0.8;0.8;;;;;;;14.71;77.91699;920.8027;;;;
2022/09/28 11:35:01;;;;;;;1.2;0.7;;;;;;;14.98;74.5498;920.7456;;;;
2022/09/28 11:37:27;;;;;;;1;0.9;;;;;;;14.9;74.17969;920.8237;;;;
2022/09/28 11:39:52;;;;;;;2;1.8;;;;;;;15.01;75.84766;920.9023;;;;
2022/09/28 11:42:17;;;;;;;1;0.9;;;;;;;15.06;74.80566;920.8681;;;;
2022/09/28 11:44:45;;;;;;;1.6;1.3;;;;;;;15.28;72.73047;920.8669;;;;
2022/09/28 11:47:09;;;;;;;0.5;0.5;;;;;;;15.32;74.16992;920.8171;;;;
2022/09/28 11:49:36;;;;;;;0.2;0.2;;;;;;;15.66;72.86328;920.7316;;;;
2022/09/28 11:52:01;;;;;;;0.6;0.5;;;;;;;15.82;72.39453;920.6903;;;;
2022/09/28 11:54:27;;;;;;;2.4;0.8;;;;;;;15.76;75.12305;920.7028;;;;
2022/09/28 11:56:51;;;;;;;0.7;0.4;;;;;;;15.8;71.47852;920.7059;;;;
2022/09/28 11:59:19;;;;;;;1.8;0.4;;;;;;;15.87;72.62207;920.7158;;;;
2022/09/28 12:01:44;;;;;;;0.7;0.4;;;;;;;15.61;69.07813;920.705;;;;
2022/09/28 12:04:09;;;;;;;0.4;0.4;;;;;;;15.31;75.52832;920.7239;;;;
2022/09/28 12:06:34;;;;;;;1.4;0.5;;;;;;;15.14;77.95801;920.7547;;;;
2022/09/28 12:09:01;;;;;;;1;0.8;;;;;;;15.28;77.67285;920.7545;;;;
2022/09/28 12:11:24;;;;;;;0.7;0.7;;;;;;;15.27;76.18164;920.7573;;;;
2022/09/28 12:13:50;;;;;;;1.1;0.9;;;;;;;15.48;75.83594;920.7964;;;;
2022/09/28 12:16:20;;;;;;;1.2;0.9;;;;;;;15.7;75.30859;920.759;;;;
2022/09/28 12:18:46;;;;;;;1.3;1.1;;;;;;;15.81;74.42578;920.7555;;;;
2022/09/28 12:21:15;;;;;;;1.3;1;;;;;;;15.85;74.50293;920.7437;;;;
2022/09/28 12:23:40;;;;;;;1.8;0.7;;;;;;;15.86;73.24414;920.838;;;;
2022/09/28 12:26:06;;;;;;;2.6;1.8;;;;;;;15.65;73.79883;920.8547;;;;
2022/09/28 12:28:31;;;;;;;1;0.8;;;;;;;15.6;74.32129;920.8402;;;;
2022/09/28 12:30:56;;;;;;;1.4;0.8;;;;;;;14.91;75.96875;920.9028;;;;
2022/09/28 12:33:21;;;;;;;1;0.9;;;;;;;14.97;76.61328;920.9111;;;;
2022/09/28 12:35:50;;;;;;;1.7;0.9;;;;;;;14.78;77.68848;920.9606;;;;
2022/09/28 12:38:17;;;;;;;0.9;0.6;;;;;;;14.25;79.11328;920.9446;;;;
2022/09/28 12:40:42;;;;;;;0.6;0.5;;;;;;;13.73;81.21484;920.9546;;;;
2022/09/28 12:43:08;;;;;;;0.8;0.6;;;;;;;13.76;82.00293;920.9275;;;;
2022/09/28 12:45:32;;;;;;;0.8;0.7;;;;;;;13.51;83.57617;920.9667;;;;
2022/09/28 12:47:58;;;;;;;0.6;0.6;;;;;;;13.49;85.04395;920.7986;;;;
2022/09/28 12:50:23;;;;;;;1.5;0.8;;;;;;;13.68;84.32324;920.8378;;;;
2022/09/28 12:52:48;;;;;;;0.8;0.6;;;;;;;13.77;84.01758;920.8392;;;;
2022/09/28 12:55:19;;;;;;;0.7;0.7;;;;;;;13.85;83.20508;920.8466;;;;
2022/09/28 12:57:45;;;;;;;1.2;1.1;;;;;;;13.99;82.53027;920.7541;;;;
2022/09/28 13:00:14;;;;;;;1.1;0.9;;;;;;;14.13;82.58984;920.8003;;;;
2022/09/28 13:02:44;;;;;;;1;0.7;;;;;;;14.28;82.14746;920.7606;;;;
2022/09/28 13:05:13;;;;;;;0.9;0.9;;;;;;;14.4;81.70898;920.6523;;;;
2022/09/28 13:07:39;;;;;;;1.4;1.3;;;;;;;14.15;83.55078;920.6851;;;;
2022/09/28 13:10:04;;;;;;;1.3;0.9;;;;;;;14.09;83.75781;920.6303;;;;
2022/09/28 13:12:33;;;;;;;0.8;0.8;;;;;;;13.46;85.24512;920.6483;;;;
2022/09/28 13:15:00;;;;;;;0.8;0.8;;;;;;;13.32;86.49414;920.6594;;;;
2022/09/28 13:17:26;;;;;;;1.2;1.1;;;;;;;13.41;86.06445;920.6006;;;;
2022/09/28 13:19:50;;;;;;;1.5;0.8;;;;;;;13.33;86.68945;920.6448;;;;
2022/09/28 13:22:15;;;;;;;0.7;0.7;;;;;;;13.59;85.5459;920.7205;;;;
2022/09/28 13:24:43;;;;;;;1.1;1;;;;;;;13.7;84.49805;920.6733;;;;
2022/09/28 13:27:06;;;;;;;0.6;0.6;;;;;;;13.39;86.56641;920.7299;;;;
2022/09/28 13:29:32;;;;;;;1;0.5;;;;;;;13.32;84.36816;920.7064;;;;
2022/09/28 13:31:56;;;;;;;0.8;0.8;;;;;;;13.19;85.94922;920.6654;;;;
2022/09/28 13:34:21;;;;;;;0.8;0.7;;;;;;;13.14;86.84766;920.5834;;;;
2022/09/28 13:36:50;;;;;;;0.9;0.6;;;;;;;13.25;86.10059;920.6607;;;;
2022/09/28 13:39:15;;;;;;;0.5;0.5;;;;;;;13.21;86.12793;920.6672;;;;
2022/09/28 13:41:41;;;;;;;2.8;1;;;;;;;13.26;85.03418;920.7307;;;;
2022/09/28 13:44:06;;;;;;;1;0.6;;;;;;;;;;;;;
2022/09/28 13:46:32;;;;;;;0.9;0.7;;;;;;;;;;;;;
2022/09/28 13:48:57;;;;;;;0.8;0.7;;;;;;;;;;;;;
2022/09/28 13:51:22;;;;;;;0.8;0.6;;;;;;;;;;;;;
2022/09/28 13:53:47;;;;;;;0.7;0.7;;;;;;;;;;;;;
2022/09/28 13:56:14;;;;;;;1;0.7;;;;;;;;;;;;;
2022/09/28 14:01:13;;;;;;;0.6;0.6;;;;;;;;;;;;;
2022/09/28 14:03:38;;;;;;;1.1;0.7;;;;;;;;;;;;;
2022/09/28 14:06:04;;;;;;;0.7;0.7;;;;;;;;;;;;;
2022/09/28 14:08:29;;;;;;;0.7;0.5;;;;;;;;;;;;;
2022/09/28 14:10:56;;;;;;;0.4;0.4;;;;;;;;;;;;;
2022/09/28 14:13:21;;;;;;;1.3;0.8;;;;;;;;;;;;;
2022/09/28 14:15:47;;;;;;;1.4;0.8;;;;;;;;;;;;;
2022/09/28 14:18:12;;;;;;;0.5;0.5;;;;;;;;;;;;;
2022/09/28 14:20:37;;;;;;;0.5;0.5;;;;;;;;;;;;;
2022/09/28 14:23:04;;;;;;;0.4;0.4;;;;;;;;;;;;;
2022/09/28 14:25:28;;;;;;;0.6;0.4;;;;;;;;;;;;;
2022/09/28 14:27:54;;;;;;;0.4;0.4;;;;;;;;;;;;;
2022/09/28 14:30:18;;;;;;;0.5;0.5;;;;;;;;;;;;;
2022/09/28 14:32:43;;;;;;;0.8;0.6;;;;;;;;;;;;;
2022/09/28 14:35:12;;;;;;;0.5;0.5;;;;;;;;;;;;;
2022/09/28 14:42:30;;;;;;;0.5;0.5;;;;;;;;;;;;;
2022/09/28 14:44:55;;;;;;;0.6;0.6;;;;;;;;;;;;;
2022/09/28 14:47:20;;;;;;;0.6;0.6;;;;;;;;;;;;;
2022/09/28 14:49:49;;;;;;;0.7;0.6;;;;;;;;;;;;;
2022/09/28 14:52:11;;;;;;;0.9;0.9;;;;;;;;;;;;;
2022/09/28 14:54:37;;;;;;;0.6;0.6;;;;;;;;;;;;;
2022/09/28 14:57:03;;;;;;;0.5;0.5;;;;;;;;;;;;;
2022/09/28 14:59:28;;;;;;;0.8;0.8;;;;;;;;;;;;;
2022/09/28 15:01:54;;;;;;;0.6;0.6;;;;;;;;;;;;;
2022/09/28 15:04:19;;;;;;;0.7;0.7;;;;;;;;;;;;;
2022/09/28 15:06:44;;;;;;;0.5;0.5;;;;;;;;;;;;;
2022/09/28 15:09:09;;;;;;;0.7;0.6;;;;;;;;;;;;;
2022/09/28 15:11:34;;;;;;;0.6;0.6;;;;;;;;;;;;;
2022/09/28 15:14:01;;;;;;;0.9;0.6;;;;;;;;;;;;;
2022/09/28 15:16:29;;;;;;;1;0.8;;;;;;;;;;;;;
2022/09/28 15:18:58;;;;;;;1.2;0.7;;;;;;;;;;;;;
2022/09/28 15:21:24;;;;;;;0.7;0.6;;;;;;;;;;;;;
2022/09/28 15:23:51;;;;;;;0.9;0.7;;;;;;;;;;;;;
2022/09/28 15:26:16;;;;;;;1.2;1.1;;;;;;;;;;;;;
2022/09/28 15:28:41;;;;;;;2;1.7;;;;;;;;;;;;;
2022/09/28 15:31:06;;;;;;;1.1;1;;;;;;;;;;;;;
2022/09/28 15:35:57;;;;;;;1.5;1.1;;;;;;;;;;;;;
2022/09/28 15:38:24;;;;;;;1.2;1.1;;;;;;;;;;;;;
2022/09/28 15:40:50;;;;;;;4.8;3.5;;;;;;;;;;;;;
2022/09/28 15:43:15;;;;;;;1.5;0.9;;;;;;;;;;;;;
2022/09/28 15:45:43;;;;;;;0.6;0.6;;;;;;;;;;;;;
2022/09/28 15:48:07;;;;;;;1.5;1.1;;;;;;;;;;;;;
2022/09/28 15:50:33;;;;;;;0.7;0.7;;;;;;;;;;;;;
2022/09/28 15:52:57;;;;;;;0.6;0.6;;;;;;;;;;;;;